Time;durP1;ratioP1;P1;durP2;ratioP2;P2;SDS_P1;SDS_P2;PMS_P1;PMS_P2;Temp;Humidity;BMP_temperature;BMP_pressure;BME280_temperature;BME280_humidity;BME280_pressure;Samples;Min_cycle;Max_cycle;Signal;HPM_P1;HPM_P2
2021/10/27 00:01:20;;;;;;;14.15;8.63;;;12.50;99.90;;;;;;6339772;22;20063;-74
2021/10/27 00:03:46;;;;;;;12.70;8.75;;;12.60;99.90;;;;;;6312059;22;20317;-74
2021/10/27 00:06:11;;;;;;;16.05;9.32;;;12.60;99.90;;;;;;6340054;22;20405;-75
2021/10/27 00:08:37;;;;;;;17.83;9.48;;;12.60;99.90;;;;;;6286120;22;20286;-74
2021/10/27 00:11:02;;;;;;;13.55;8.82;;;12.60;99.90;;;;;;6312433;22;20274;-74
2021/10/27 00:13:28;;;;;;;17.10;9.27;;;12.60;99.90;;;;;;6339732;22;19994;-74
2021/10/27 00:15:53;;;;;;;14.40;9.65;;;12.60;99.90;;;;;;6286028;22;19998;-74
2021/10/27 00:18:19;;;;;;;13.98;9.23;;;12.60;99.90;;;;;;6286631;22;19998;-74
2021/10/27 00:20:45;;;;;;;18.17;11.25;;;12.60;99.90;;;;;;6286016;22;20412;-74
2021/10/27 00:23:11;;;;;;;15.95;9.48;;;12.60;99.90;;;;;;6311656;22;20413;-74
2021/10/27 00:25:37;;;;;;;15.50;10.15;;;12.60;99.90;;;;;;6339970;22;20006;-74
2021/10/27 00:28:02;;;;;;;21.10;10.43;;;12.60;99.90;;;;;;6339616;22;19998;-74
2021/10/27 00:30:28;;;;;;;16.35;9.82;;;12.60;99.90;;;;;;6311619;22;19999;-75
2021/10/27 00:32:54;;;;;;;14.85;10.40;;;12.60;99.90;;;;;;6285867;22;19995;-74
2021/10/27 00:35:19;;;;;;;18.05;10.20;;;12.60;99.90;;;;;;6312174;22;20026;-74
2021/10/27 00:37:45;;;;;;;16.13;10.57;;;12.60;99.90;;;;;;6311609;22;19999;-75
2021/10/27 00:40:12;;;;;;;24.52;11.73;;;12.60;99.90;;;;;;6311700;22;20003;-74
2021/10/27 00:42:37;;;;;;;19.60;12.27;;;12.60;99.90;;;;;;6339962;22;20402;-75
2021/10/27 00:45:03;;;;;;;17.52;11.82;;;12.70;99.90;;;;;;6339786;22;20002;-75
2021/10/27 00:47:29;;;;;;;22.25;11.88;;;12.70;99.90;;;;;;6339591;22;20441;-75
2021/10/27 00:49:54;;;;;;;23.67;11.88;;;12.70;99.90;;;;;;6311936;22;20029;-74
2021/10/27 00:52:20;;;;;;;16.20;10.63;;;12.70;99.90;;;;;;6311573;22;19995;-74
2021/10/27 00:54:48;;;;;;;20.27;12.13;;;12.70;99.90;;;;;;6339857;22;19995;-74
2021/10/27 00:57:16;;;;;;;17.95;11.10;;;12.60;99.90;;;;;;6286700;22;19995;-74
2021/10/27 00:59:44;;;;;;;18.90;10.82;;;12.70;99.90;;;;;;6311743;22;20093;-74
2021/10/27 01:02:11;;;;;;;22.25;12.07;;;12.70;99.90;;;;;;6312710;22;20343;-75
2021/10/27 01:04:37;;;;;;;21.90;11.75;;;12.60;99.90;;;;;;6312594;22;20022;-74
2021/10/27 01:07:04;;;;;;;18.33;11.70;;;12.70;99.90;;;;;;6311944;22;20397;-75
2021/10/27 01:09:30;;;;;;;17.65;11.85;;;12.70;99.90;;;;;;6312454;22;20443;-74
2021/10/27 01:11:59;;;;;;;22.75;13.15;;;12.70;99.90;;;;;;6312233;22;20033;-73
2021/10/27 01:14:43;;;;;;;16.33;11.65;;;12.70;99.90;;;;;;6314065;22;20300;-75
2021/10/27 01:17:17;;;;;;;18.67;11.60;;;12.70;99.90;;;;;;6341631;22;19995;-74
2021/10/27 01:19:50;;;;;;;19.40;11.48;;;12.70;99.90;;;;;;6341600;22;20077;-74
2021/10/27 01:22:19;;;;;;;19.80;12.00;;;12.70;99.90;;;;;;6341268;22;20002;-74
2021/10/27 01:24:45;;;;;;;21.33;12.18;;;12.70;99.90;;;;;;6341077;22;20037;-74
2021/10/27 01:27:11;;;;;;;18.67;11.65;;;12.70;99.90;;;;;;6341560;22;19995;-74
2021/10/27 01:29:37;;;;;;;20.70;12.60;;;12.70;99.90;;;;;;6341157;22;19995;-75
2021/10/27 01:32:04;;;;;;;17.35;12.00;;;12.70;99.90;;;;;;6341489;22;19995;-74
2021/10/27 01:34:29;;;;;;;15.70;10.77;;;12.70;99.90;;;;;;6341444;22;19995;-75
2021/10/27 01:36:55;;;;;;;17.75;11.60;;;12.70;99.90;;;;;;6341399;22;20017;-75
2021/10/27 01:39:21;;;;;;;17.85;11.50;;;12.70;99.90;;;;;;6287528;22;19995;-74
2021/10/27 01:41:46;;;;;;;19.98;12.05;;;12.70;99.90;;;;;;6341462;22;19994;-74
2021/10/27 01:44:12;;;;;;;15.25;10.65;;;12.70;99.90;;;;;;6313170;22;20286;-74
2021/10/27 01:46:39;;;;;;;17.20;11.77;;;12.70;99.90;;;;;;6341487;22;20026;-74
2021/10/27 01:49:07;;;;;;;22.27;12.20;;;12.70;99.90;;;;;;6313927;22;20002;-74
2021/10/27 01:51:33;;;;;;;20.35;12.77;;;12.70;99.90;;;;;;6287496;22;20006;-74
2021/10/27 01:53:59;;;;;;;21.13;11.93;;;12.80;99.90;;;;;;6341273;22;19994;-74
2021/10/27 01:56:26;;;;;;;18.38;11.82;;;12.80;99.90;;;;;;6313489;22;20381;-74
2021/10/27 01:58:52;;;;;;;19.95;12.27;;;12.80;99.90;;;;;;6312919;22;20333;-74
2021/10/27 02:01:18;;;;;;;20.30;12.45;;;12.70;99.90;;;;;;6287505;22;20006;-73
2021/10/27 02:03:44;;;;;;;24.13;12.77;;;12.80;99.90;;;;;;6313852;22;20002;-74
2021/10/27 02:06:11;;;;;;;16.88;11.38;;;12.70;99.90;;;;;;6313432;22;20048;-74
2021/10/27 02:08:48;;;;;;;19.15;12.63;;;12.70;99.90;;;;;;6288323;22;20030;-73
2021/10/27 02:11:13;;;;;;;16.70;11.55;;;12.80;99.90;;;;;;6313567;22;19998;-74
2021/10/27 02:13:39;;;;;;;20.50;12.98;;;12.70;99.90;;;;;;6287425;22;20416;-73
2021/10/27 02:16:05;;;;;;;23.52;13.85;;;12.70;99.90;;;;;;6313877;22;20041;-74
2021/10/27 02:18:31;;;;;;;21.25;13.07;;;12.70;99.90;;;;;;6341050;22;20002;-74
2021/10/27 02:20:57;;;;;;;17.85;12.20;;;12.80;99.90;;;;;;6340669;22;20290;-74
2021/10/27 02:23:23;;;;;;;17.73;12.32;;;12.80;99.90;;;;;;6340945;22;19994;-74
2021/10/27 02:25:48;;;;;;;23.00;12.73;;;12.70;99.90;;;;;;6340935;22;20385;-75
2021/10/27 02:28:14;;;;;;;22.05;13.13;;;12.80;99.90;;;;;;6312671;22;20431;-74
2021/10/27 02:30:41;;;;;;;20.73;12.80;;;12.80;99.90;;;;;;6312826;22;19995;-74
2021/10/27 02:33:07;;;;;;;26.25;13.15;;;12.80;99.90;;;;;;6340223;22;19990;-73
2021/10/27 02:35:33;;;;;;;25.23;12.85;;;12.80;99.90;;;;;;6312909;22;20002;-74
2021/10/27 02:37:58;;;;;;;21.38;12.48;;;12.80;99.90;;;;;;6340848;22;20002;-74
2021/10/27 02:40:24;;;;;;;20.50;12.80;;;12.80;99.90;;;;;;6312594;22;20004;-74
2021/10/27 02:42:51;;;;;;;19.52;12.35;;;12.90;99.90;;;;;;6312573;22;20074;-73
2021/10/27 02:45:17;;;;;;;19.08;11.80;;;12.90;99.90;;;;;;6287952;22;20006;-74
2021/10/27 02:47:44;;;;;;;20.83;11.93;;;12.90;99.90;;;;;;6340721;22;19991;-74
2021/10/27 02:50:11;;;;;;;18.08;11.70;;;12.90;99.90;;;;;;6340695;22;20032;-74
2021/10/27 02:52:36;;;;;;;17.17;11.32;;;12.90;99.90;;;;;;6286870;22;19999;-74
2021/10/27 02:55:03;;;;;;;18.13;11.90;;;12.90;99.90;;;;;;6313259;22;20470;-74
2021/10/27 02:57:29;;;;;;;17.27;11.23;;;12.90;99.90;;;;;;6313137;22;20006;-74
2021/10/27 02:59:54;;;;;;;23.20;12.20;;;13.00;99.90;;;;;;6312742;22;20006;-74
2021/10/27 03:02:20;;;;;;;19.23;11.10;;;13.00;99.90;;;;;;6312567;22;20026;-73
2021/10/27 03:04:45;;;;;;;15.30;11.10;;;13.00;99.90;;;;;;6313090;22;19995;-74
2021/10/27 03:07:11;;;;;;;15.40;11.00;;;13.00;99.90;;;;;;6313302;22;20506;-74
2021/10/27 03:09:36;;;;;;;16.80;11.48;;;13.00;99.90;;;;;;6340600;22;20015;-73
2021/10/27 03:12:02;;;;;;;18.83;11.25;;;13.00;99.90;;;;;;6287159;22;19995;-74
2021/10/27 03:14:28;;;;;;;17.52;12.20;;;13.00;99.90;;;;;;6340528;22;19995;-74
2021/10/27 03:16:54;;;;;;;18.65;11.68;;;13.00;99.90;;;;;;6312157;22;19999;-73
2021/10/27 03:19:20;;;;;;;21.33;13.02;;;12.90;99.90;;;;;;6340196;22;20021;-73
2021/10/27 03:21:46;;;;;;;21.10;12.73;;;12.90;99.90;;;;;;6340529;22;20424;-74
2021/10/27 03:24:11;;;;;;;21.27;12.40;;;12.90;99.90;;;;;;6286602;22;20098;-73
2021/10/27 03:26:37;;;;;;;20.20;12.55;;;12.90;99.90;;;;;;6340561;22;20034;-75
2021/10/27 03:29:02;;;;;;;21.67;13.30;;;12.80;99.90;;;;;;6340423;22;19994;-74
2021/10/27 03:31:28;;;;;;;19.85;13.50;;;12.80;99.90;;;;;;6286355;22;19999;-74
2021/10/27 03:33:54;;;;;;;30.25;13.98;;;12.80;99.90;;;;;;6312393;22;19995;-74
2021/10/27 03:36:20;;;;;;;22.33;13.02;;;12.90;99.90;;;;;;6311846;22;20094;-74
2021/10/27 03:38:45;;;;;;;19.63;12.82;;;12.90;99.90;;;;;;6311932;22;20373;-74
2021/10/27 03:41:13;;;;;;;21.25;12.55;;;12.90;99.90;;;;;;6339984;22;20013;-74
2021/10/27 03:43:38;;;;;;;24.70;13.65;;;12.90;99.90;;;;;;6340249;22;19998;-74
2021/10/27 03:46:04;;;;;;;21.52;13.30;;;12.90;99.90;;;;;;6312229;22;19999;-74
2021/10/27 03:48:30;;;;;;;21.10;13.40;;;13.00;99.90;;;;;;6311882;22;19995;-74
2021/10/27 03:50:55;;;;;;;22.13;13.10;;;12.90;99.90;;;;;;6312266;22;20405;-73
2021/10/27 03:53:21;;;;;;;21.92;13.45;;;13.00;99.90;;;;;;6311914;22;20076;-74
2021/10/27 03:55:46;;;;;;;22.35;12.52;;;13.00;99.90;;;;;;6339889;22;19999;-74
2021/10/27 03:58:12;;;;;;;22.27;13.85;;;13.00;99.90;;;;;;6311883;22;20081;-74
2021/10/27 04:00:39;;;;;;;23.55;14.13;;;13.00;99.90;;;;;;6311776;22;20493;-74
2021/10/27 04:03:05;;;;;;;21.83;14.68;;;12.90;99.90;;;;;;6261354;22;20078;-74
2021/10/27 04:05:31;;;;;;;23.05;13.95;;;12.90;99.90;;;;;;6261312;22;20033;-73
2021/10/27 04:07:56;;;;;;;22.48;14.82;;;13.00;99.90;;;;;;6312229;22;19994;-74
2021/10/27 04:10:22;;;;;;;25.08;14.68;;;12.90;99.90;;;;;;6312379;22;20340;-74
2021/10/27 04:12:48;;;;;;;23.70;15.80;;;12.90;99.90;;;;;;6285885;22;19994;-74
2021/10/27 04:15:13;;;;;;;23.27;13.82;;;12.90;99.90;;;;;;6339752;22;20343;-74
2021/10/27 04:17:40;;;;;;;20.10;13.85;;;12.90;99.90;;;;;;6311896;22;20073;-74
2021/10/27 04:20:08;;;;;;;22.17;14.25;;;12.90;99.90;;;;;;6311866;22;20369;-74
2021/10/27 04:22:34;;;;;;;22.80;14.05;;;12.90;99.90;;;;;;6311707;22;20363;-73
2021/10/27 04:25:00;;;;;;;25.98;14.07;;;12.90;99.90;;;;;;6311557;22;20091;-74
2021/10/27 04:27:25;;;;;;;27.55;13.52;;;13.00;99.90;;;;;;6311768;22;19999;-74
2021/10/27 04:29:51;;;;;;;25.15;14.50;;;13.00;99.90;;;;;;6311713;22;19999;-74
2021/10/27 04:32:16;;;;;;;18.92;13.20;;;13.00;99.90;;;;;;6339358;22;20001;-74
2021/10/27 04:34:42;;;;;;;26.60;14.48;;;13.00;99.90;;;;;;6339999;22;20298;-75
2021/10/27 04:37:09;;;;;;;18.95;14.00;;;13.00;99.90;;;;;;6339330;22;20032;-74
2021/10/27 04:39:35;;;;;;;22.83;14.10;;;13.00;99.90;;;;;;6312476;22;19995;-74
2021/10/27 04:42:01;;;;;;;22.25;14.10;;;13.00;99.90;;;;;;6312012;22;19998;-74
2021/10/27 04:44:27;;;;;;;21.50;14.32;;;13.00;99.90;;;;;;6311680;22;20286;-74
2021/10/27 04:46:52;;;;;;;21.45;14.07;;;13.00;99.90;;;;;;6340517;22;20028;-74
2021/10/27 04:49:18;;;;;;;19.95;14.40;;;13.00;99.90;;;;;;6341940;22;20021;-74
2021/10/27 04:51:43;;;;;;;21.83;14.68;;;13.10;99.90;;;;;;6341607;22;20003;-74
2021/10/27 04:54:09;;;;;;;22.23;15.02;;;13.00;99.90;;;;;;6314183;22;20428;-74
2021/10/27 04:56:35;;;;;;;24.33;15.70;;;13.00;99.90;;;;;;6341537;22;20305;-74
2021/10/27 04:59:01;;;;;;;22.92;15.98;;;13.10;99.90;;;;;;6341042;22;20022;-74
2021/10/27 05:01:26;;;;;;;31.70;17.08;;;13.10;99.90;;;;;;6262433;22;20025;-74
2021/10/27 05:03:52;;;;;;;29.05;17.05;;;13.10;99.90;;;;;;6341785;22;20469;-74
2021/10/27 05:06:19;;;;;;;27.17;16.92;;;13.10;99.90;;;;;;6341895;22;20333;-74
2021/10/27 05:08:47;;;;;;;28.55;16.63;;;13.10;99.90;;;;;;6313546;22;20002;-74
2021/10/27 05:11:12;;;;;;;26.23;16.75;;;13.10;99.90;;;;;;6288207;22;20048;-74
2021/10/27 05:13:38;;;;;;;33.10;17.45;;;13.10;99.90;;;;;;6341320;22;20057;-74
2021/10/27 05:16:04;;;;;;;28.33;17.25;;;13.10;99.90;;;;;;6341594;22;20073;-74
2021/10/27 05:18:29;;;;;;;31.55;17.27;;;13.10;99.90;;;;;;6314463;22;20074;-74
2021/10/27 05:20:55;;;;;;;28.48;17.23;;;13.10;99.90;;;;;;6341240;22;19998;-74
2021/10/27 05:23:21;;;;;;;25.98;16.13;;;13.10;99.90;;;;;;6341185;22;19998;-74
2021/10/27 05:25:47;;;;;;;24.20;15.70;;;13.20;99.90;;;;;;6341123;22;19995;-74
2021/10/27 05:28:13;;;;;;;21.17;14.15;;;13.20;99.90;;;;;;6287436;22;20003;-75
2021/10/27 05:30:38;;;;;;;23.85;14.50;;;13.20;99.90;;;;;;6287694;22;20338;-74
2021/10/27 05:33:04;;;;;;;26.42;14.35;;;13.20;99.90;;;;;;6341352;22;20002;-74
2021/10/27 05:35:31;;;;;;;20.40;13.10;;;13.20;99.90;;;;;;6313206;22;20003;-75
2021/10/27 05:37:57;;;;;;;22.63;13.30;;;13.20;99.90;;;;;;6341433;22;20048;-74
2021/10/27 05:40:23;;;;;;;23.90;12.43;;;13.30;99.90;;;;;;6313152;22;20002;-74
2021/10/27 05:42:50;;;;;;;17.83;11.80;;;13.30;99.90;;;;;;6313544;22;19999;-73
2021/10/27 05:45:18;;;;;;;17.33;12.05;;;13.30;99.90;;;;;;6341251;22;20002;-74
2021/10/27 05:47:48;;;;;;;23.95;12.80;;;13.30;99.90;;;;;;6340932;22;19991;-74
2021/10/27 05:50:26;;;;;;;21.13;11.63;;;13.30;99.90;;;;;;6341214;22;20002;-74
2021/10/27 05:55:37;;;;;;;12.32;10.30;;;13.30;99.90;;;;;;6317300;22;20426;-74
2021/10/27 05:58:05;;;;;;;20.50;10.88;;;13.40;99.90;;;;;;6313024;22;20011;-74
2021/10/27 06:00:32;;;;;;;18.08;9.85;;;13.30;99.90;;;;;;6313952;22;20026;-75
2021/10/27 06:02:58;;;;;;;18.65;9.85;;;13.40;99.90;;;;;;6340697;22;20006;-74
2021/10/27 06:05:24;;;;;;;17.17;9.27;;;13.40;99.90;;;;;;6286998;22;20081;-75
2021/10/27 06:07:50;;;;;;;19.10;10.05;;;13.40;99.90;;;;;;6312858;22;19999;-74
2021/10/27 06:10:20;;;;;;;14.80;9.75;;;13.40;99.90;;;;;;6314011;22;20335;-74
2021/10/27 06:12:48;;;;;;;20.08;9.15;;;13.30;99.90;;;;;;6311837;22;19990;-74
2021/10/27 06:15:17;;;;;;;17.65;9.77;;;13.40;99.90;;;;;;6313275;22;20026;-74
2021/10/27 06:17:43;;;;;;;15.40;8.75;;;13.40;99.90;;;;;;6339823;22;20052;-74
2021/10/27 06:20:09;;;;;;;17.98;8.60;;;13.40;99.90;;;;;;6286296;22;20347;-74
2021/10/27 06:22:34;;;;;;;16.63;8.38;;;13.40;99.90;;;;;;6340066;22;19994;-74
2021/10/27 06:25:00;;;;;;;17.35;7.93;;;13.40;99.90;;;;;;6339849;22;20010;-73
2021/10/27 06:27:26;;;;;;;16.25;8.25;;;13.40;99.90;;;;;;6312415;22;20064;-74
2021/10/27 06:29:56;;;;;;;15.13;8.73;;;13.40;99.90;;;;;;6311888;22;20395;-76
2021/10/27 06:32:32;;;;;;;17.40;7.82;;;13.40;99.90;;;;;;6311927;22;19999;-75
2021/10/27 06:35:03;;;;;;;16.67;7.75;;;13.40;99.90;;;;;;6314864;22;19999;-74
2021/10/27 06:37:49;;;;;;;17.45;8.02;;;13.40;99.90;;;;;;6287682;22;19998;-74
2021/10/27 06:46:24;;;;;;;15.75;5.85;;;13.40;99.90;;;;;;6316320;22;20078;-74
2021/10/27 06:48:31;;;;;;;9.75;6.20;;;13.40;99.90;;;;;;6339409;22;20022;-76
2021/10/27 06:50:57;;;;;;;11.50;5.85;;;13.40;99.90;;;;;;6339473;22;20308;-75
2021/10/27 06:53:22;;;;;;;13.15;5.57;;;13.40;99.90;;;;;;6286491;22;19995;-75
2021/10/27 06:55:48;;;;;;;13.40;6.25;;;13.40;99.90;;;;;;6312597;22;19999;-75
2021/10/27 06:58:18;;;;;;;9.70;5.68;;;13.40;99.90;;;;;;6312455;22;20018;-75
2021/10/27 07:00:50;;;;;;;11.35;5.68;;;13.40;99.90;;;;;;6340584;22;19995;-74
2021/10/27 07:17:03;;;;;;;9.88;5.60;;;13.50;99.90;;;;;;6339319;22;20025;-74
2021/10/27 07:19:28;;;;;;;9.77;5.05;;;13.50;99.90;;;;;;6311787;22;19991;-74
2021/10/27 07:21:54;;;;;;;10.88;5.38;;;13.50;99.90;;;;;;6312900;22;20292;-75
2021/10/27 07:24:20;;;;;;;8.52;4.82;;;13.50;99.90;;;;;;6339419;22;20397;-74
2021/10/27 07:26:46;;;;;;;11.60;4.72;;;13.60;99.90;;;;;;6311359;22;20033;-74
2021/10/27 07:29:17;;;;;;;10.90;4.93;;;13.60;99.90;;;;;;6285836;22;19999;-74
2021/10/27 07:31:43;;;;;;;6.20;4.93;;;13.60;99.90;;;;;;6340136;22;19997;-74
2021/10/27 07:34:12;;;;;;;10.30;4.95;;;13.60;99.90;;;;;;6285954;22;19994;-75
2021/10/27 07:42:08;;;;;;;15.02;5.00;;;13.70;99.90;;;;;;6293626;22;19999;-75
2021/10/27 07:44:34;;;;;;;10.32;5.22;;;13.70;99.90;;;;;;6339053;22;20029;-74
2021/10/27 07:47:00;;;;;;;9.30;4.85;;;13.80;99.90;;;;;;6311363;22;20286;-74
2021/10/27 07:49:26;;;;;;;11.07;5.07;;;13.90;99.90;;;;;;6311125;22;20469;-74
2021/10/27 07:51:52;;;;;;;8.05;4.00;;;13.90;99.90;;;;;;6339347;22;20082;-74
2021/10/27 07:54:18;;;;;;;9.70;4.53;;;13.90;99.90;;;;;;6311497;22;20026;-75
2021/10/27 07:56:44;;;;;;;10.85;4.28;;;14.00;99.90;;;;;;6310457;22;20048;-74
2021/10/27 07:59:11;;;;;;;7.88;4.18;;;14.00;99.90;;;;;;6338426;22;20030;-74
2021/10/27 08:01:37;;;;;;;12.27;4.32;;;14.00;99.90;;;;;;6311530;22;19994;-75
2021/10/27 08:04:02;;;;;;;8.52;3.85;;;14.10;99.90;;;;;;6338742;22;20052;-75
2021/10/27 08:06:28;;;;;;;9.27;4.13;;;14.00;99.90;;;;;;6311494;22;20405;-75
2021/10/27 08:08:54;;;;;;;11.07;4.20;;;14.00;99.90;;;;;;6311105;22;19991;-75
2021/10/27 08:11:20;;;;;;;12.30;3.88;;;14.10;99.90;;;;;;6338725;22;19994;-75
2021/10/27 08:13:46;;;;;;;8.75;4.22;;;14.10;99.90;;;;;;6310945;22;19999;-75
2021/10/27 08:16:12;;;;;;;8.38;4.13;;;14.10;99.90;;;;;;6310617;22;20002;-76
2021/10/27 08:18:37;;;;;;;7.43;4.00;;;14.10;99.90;;;;;;6311164;22;19998;-73
2021/10/27 08:21:03;;;;;;;12.07;3.95;;;14.10;99.90;;;;;;6338327;22;20440;-74
2021/10/27 08:23:44;;;;;;;13.15;4.53;;;14.10;99.90;;;;;;6338535;22;20072;-74
2021/10/27 08:26:12;;;;;;;10.25;3.80;;;14.20;99.90;;;;;;6310788;22;20010;-75
2021/10/27 08:28:40;;;;;;;7.43;3.60;;;14.20;99.90;;;;;;6339521;22;20001;-74
2021/10/27 08:31:13;;;;;;;10.10;3.50;;;14.20;99.90;;;;;;6338575;22;19994;-73
2021/10/27 08:36:08;;;;;;;7.32;3.65;;;14.30;99.90;;;;;;6338980;22;20383;-74
2021/10/27 08:38:34;;;;;;;11.65;3.63;;;14.30;99.90;;;;;;6310641;22;20038;-75
2021/10/27 08:41:01;;;;;;;7.32;3.38;;;14.40;99.90;;;;;;6311008;22;20354;-76
2021/10/27 08:43:28;;;;;;;8.90;3.88;;;14.40;99.90;;;;;;6285750;22;20412;-76
2021/10/27 08:45:54;;;;;;;12.18;3.83;;;14.40;99.90;;;;;;6338771;22;20010;-77
2021/10/27 08:48:20;;;;;;;10.68;3.40;;;14.50;99.90;;;;;;6338630;22;19995;-77
2021/10/27 08:50:48;;;;;;;8.48;3.53;;;14.50;99.90;;;;;;6338566;22;20018;-75
2021/10/27 08:53:15;;;;;;;10.68;3.40;;;14.50;99.90;;;;;;6338950;22;20019;-75
2021/10/27 08:55:44;;;;;;;6.30;3.17;;;14.50;99.90;;;;;;6286398;22;20392;-76
2021/10/27 08:58:10;;;;;;;8.30;3.25;;;14.50;99.90;;;;;;6285573;22;20014;-75
2021/10/27 09:00:46;;;;;;;9.32;3.60;;;14.60;99.90;;;;;;6310259;22;20002;-75
2021/10/27 09:03:25;;;;;;;7.75;3.25;;;14.60;99.90;;;;;;6338708;22;20003;-75
2021/10/27 09:06:03;;;;;;;6.55;3.80;;;14.60;99.90;;;;;;6338591;22;20312;-75
2021/10/27 09:09:00;;;;;;;7.45;3.70;;;14.60;99.90;;;;;;6338807;22;20065;-76
2021/10/27 09:34:21;;;;;;;8.45;4.18;;;14.40;99.90;;;;;;5110119;27;20426;-68
2021/10/27 09:37:25;;;;;;;8.75;3.65;;;14.50;99.90;;;;;;5105049;28;20099;-69
2021/10/27 09:42:22;;;;;;;9.73;3.80;;;14.50;99.90;;;;;;5108463;28;20032;-72
2021/10/27 09:46:03;;;;;;;8.25;3.63;;;14.50;99.90;;;;;;5077306;28;20028;-70
2021/10/27 09:47:57;;;;;;;8.13;3.92;;;14.50;99.90;;;;;;5091416;28;20028;-72
2021/10/27 09:56:38;;;;;;;10.35;4.25;;;14.60;99.90;;;;;;5084281;28;20433;-70
2021/10/27 10:04:26;;;;;;;15.43;4.32;;;14.60;99.90;;;;;;5089875;28;20035;-69
2021/10/27 10:06:56;;;;;;;8.75;3.88;;;14.60;99.90;;;;;;5074816;28;20420;-69
2021/10/27 10:09:22;;;;;;;12.02;4.38;;;14.60;99.90;;;;;;5096850;28;20024;-69
2021/10/27 10:11:49;;;;;;;9.25;4.63;;;14.60;99.90;;;;;;5087946;28;20027;-69
2021/10/27 10:14:15;;;;;;;6.32;3.33;;;14.60;99.90;;;;;;5088930;28;20501;-69
2021/10/27 10:16:45;;;;;;;6.57;3.63;;;14.60;99.90;;;;;;5089091;28;20016;-68
2021/10/27 10:19:13;;;;;;;9.27;3.72;;;14.60;99.90;;;;;;5081637;28;20032;-69
2021/10/27 10:21:42;;;;;;;8.93;3.30;;;14.60;99.90;;;;;;5086862;28;20031;-70
2021/10/27 10:27:05;;;;;;;9.80;3.72;;;14.70;99.90;;;;;;5111654;27;1146942;-70
2021/10/27 10:29:47;;;;;;;9.05;3.45;;;14.90;99.90;;;;;;5112982;28;20106;-69
2021/10/27 10:35:08;;;;;;;7.75;3.50;;;14.90;99.90;;;;;;5067333;28;20418;-69
2021/10/27 10:37:41;;;;;;;5.18;3.30;;;15.00;99.90;;;;;;5060074;28;20060;-69
2021/10/27 10:40:39;;;;;;;7.35;3.45;;;15.00;99.90;;;;;;5053721;28;20735;-69
2021/10/27 10:55:40;;;;;;;8.02;3.60;;;15.00;99.90;;;;;;5057936;28;20440;-69
2021/10/27 11:23:58;;;;;;;7.07;3.45;;;16.20;99.90;;;;;;5095444;28;20385;-70
2021/10/27 11:37:37;;;;;;;7.90;3.15;;;16.40;99.90;;;;;;5090542;28;20039;-69
2021/10/27 11:40:12;;;;;;;5.55;3.20;;;16.60;99.90;;;;;;5088360;28;20452;-69
2021/10/27 11:42:44;;;;;;;5.35;3.20;;;16.50;99.90;;;;;;5094291;28;20020;-69
2021/10/27 11:45:22;;;;;;;9.07;3.45;;;16.50;99.90;;;;;;5091665;28;20028;-70
2021/10/27 11:47:49;;;;;;;6.18;2.95;;;16.60;99.90;;;;;;5091421;28;20531;-69
2021/10/27 11:50:18;;;;;;;4.65;2.72;;;16.80;99.90;;;;;;5091796;28;20035;-68
2021/10/27 11:52:45;;;;;;;4.63;2.70;;;17.10;99.90;;;;;;5090058;28;20025;-69
2021/10/27 11:55:13;;;;;;;6.55;3.40;;;17.20;99.90;;;;;;5098730;28;20028;-70
2021/10/27 11:57:41;;;;;;;6.53;3.20;;;17.40;99.90;;;;;;5108990;28;20106;-70
2021/10/27 12:00:25;;;;;;;5.63;2.90;;;17.40;99.90;;;;;;5098949;28;20027;-70
2021/10/27 12:03:00;;;;;;;5.82;2.92;;;17.40;99.90;;;;;;5109418;28;20039;-70
2021/10/27 12:05:30;;;;;;;5.35;2.67;;;17.60;99.90;;;;;;5106201;28;20028;-70
2021/10/27 12:11:13;;;;;;;3.60;2.70;;;17.70;99.90;;;;;;5107069;28;20156;-70
2021/10/27 12:13:46;;;;;;;7.05;2.72;;;17.50;99.90;;;;;;5110333;28;20493;-70
2021/10/27 12:19:06;;;;;;;6.82;3.00;;;17.50;99.90;;;;;;5096223;28;20489;-69
2021/10/27 12:21:33;;;;;;;5.88;2.97;;;17.50;99.90;;;;;;5100775;28;20047;-69
2021/10/27 12:24:01;;;;;;;4.25;2.60;;;17.30;99.90;;;;;;5101906;28;20028;-71
2021/10/27 12:26:28;;;;;;;4.47;2.50;;;17.50;99.90;;;;;;5098814;28;20031;-71
2021/10/27 12:29:14;;;;;;;5.60;2.83;;;17.60;99.90;;;;;;5097538;28;20044;-71
2021/10/27 12:31:41;;;;;;;8.23;3.10;;;17.40;99.90;;;;;;5099260;28;20030;-71
2021/10/27 12:34:26;;;;;;;5.53;2.60;;;17.60;99.90;;;;;;5101853;28;20030;-69
2021/10/27 12:37:00;;;;;;;4.85;2.70;;;17.70;99.90;;;;;;5090852;28;20028;-71
2021/10/27 12:39:44;;;;;;;7.82;2.85;;;17.40;99.90;;;;;;5101262;28;20024;-71
2021/10/27 12:42:12;;;;;;;7.57;3.03;;;17.30;99.90;;;;;;5093180;28;20032;-71
2021/10/27 12:44:48;;;;;;;4.43;2.47;;;17.30;99.90;;;;;;5076695;28;20455;-71
2021/10/27 12:50:05;;;;;;;4.05;2.58;;;17.40;99.90;;;;;;5112128;27;20115;-71
2021/10/27 12:52:35;;;;;;;7.97;2.88;;;17.40;99.90;;;;;;5091414;28;20091;-71
2021/10/27 13:06:30;;;;;;;4.93;2.45;;;17.60;99.90;;;;;;5067299;28;20033;-71
2021/10/27 13:12:04;;;;;;;7.03;2.80;;;17.60;99.90;;;;;;5077271;28;20712;-70
2021/10/27 13:14:46;;;;;;;5.82;2.10;;;17.60;99.90;;;;;;5090459;28;20032;-70
2021/10/27 13:17:43;;;;;;;5.40;2.40;;;17.70;99.90;;;;;;5086674;28;20025;-70
2021/10/27 13:22:51;;;;;;;7.53;2.30;;;17.30;99.90;;;;;;5081220;28;20089;-71
2021/10/27 13:30:51;;;;;;;4.93;2.22;;;17.60;99.90;;;;;;5080848;28;20028;-71
2021/10/27 13:33:20;;;;;;;7.78;2.88;;;17.70;99.90;;;;;;5082595;28;20543;-71
2021/10/27 13:35:46;;;;;;;8.32;2.28;;;17.50;99.90;;;;;;5088051;28;20038;-71
2021/10/27 13:38:13;;;;;;;4.53;2.30;;;17.30;99.90;;;;;;5077216;28;20134;-71
2021/10/27 13:40:43;;;;;;;8.48;2.30;;;17.20;99.90;;;;;;5070451;28;20390;-71
2021/10/27 13:43:15;;;;;;;10.32;2.70;;;17.20;99.90;;;;;;5085095;28;20466;-71
2021/10/27 13:45:58;;;;;;;7.13;2.55;;;17.20;99.90;;;;;;5087087;28;20058;-71
2021/10/27 13:48:38;;;;;;;8.52;2.55;;;17.30;99.90;;;;;;5070088;28;20071;-71
2021/10/27 14:05:59;;;;;;;5.90;2.13;;;17.00;99.90;;;;;;5077376;28;20119;-71
2021/10/27 14:07:46;;;;;;;8.23;2.20;;;17.00;99.90;;;;;;5065332;28;20021;-71
2021/10/27 14:10:15;;;;;;;5.22;2.30;;;17.10;99.90;;;;;;5089518;28;20511;-71
2021/10/27 14:12:48;;;;;;;6.28;2.45;;;17.10;99.90;;;;;;5074861;28;20025;-71
2021/10/27 14:15:32;;;;;;;7.78;3.10;;;17.00;99.90;;;;;;5075600;28;20024;-71
2021/10/27 14:18:39;;;;;;;6.82;2.53;;;17.00;99.90;;;;;;5069492;28;20059;-71
2021/10/27 14:40:29;;;;;;;7.50;3.05;;;16.80;99.90;;;;;;5055880;28;20381;-71
2021/10/27 14:50:30;;;;;;;8.88;3.45;;;16.80;99.90;;;;;;5075034;28;20428;-71
2021/10/27 14:58:49;;;;;;;7.80;3.30;;;16.80;99.90;;;;;;5075524;28;20024;-71
2021/10/27 15:21:29;;;;;;;5.72;3.85;;;16.40;99.90;;;;;;5075032;28;20078;-71
2021/10/27 15:24:08;;;;;;;6.40;3.45;;;16.20;99.90;;;;;;5075248;28;20017;-71
2021/10/27 15:32:14;;;;;;;8.07;3.50;;;16.10;99.90;;;;;;5074735;28;20102;-71
2021/10/27 15:34:49;;;;;;;7.88;3.72;;;16.10;99.90;;;;;;5072735;28;20042;-71
2021/10/27 15:42:55;;;;;;;7.28;4.00;;;15.90;99.90;;;;;;5074470;28;20020;-71
2021/10/27 15:51:01;;;;;;;10.45;5.00;;;15.80;99.90;;;;;;5074236;28;20397;-71
2021/10/27 15:53:27;;;;;;;10.18;3.95;;;15.70;99.90;;;;;;5075018;28;20024;-71
2021/10/27 15:55:53;;;;;;;6.32;4.15;;;15.60;99.90;;;;;;5073102;28;20032;-71
2021/10/27 15:58:19;;;;;;;8.15;4.95;;;15.50;99.90;;;;;;5073782;28;20013;-71
2021/10/27 16:00:45;;;;;;;9.15;4.68;;;15.50;99.90;;;;;;5074855;28;20033;-71
2021/10/27 16:03:15;;;;;;;9.75;5.78;;;15.40;99.90;;;;;;5074575;28;20059;-71
2021/10/27 16:05:42;;;;;;;10.05;5.50;;;15.30;99.90;;;;;;5074708;28;20482;-71
2021/10/27 16:08:08;;;;;;;8.07;5.55;;;15.20;99.90;;;;;;5074759;28;20443;-71
2021/10/27 16:10:35;;;;;;;11.23;5.47;;;15.20;99.90;;;;;;5072809;28;20044;-71
2021/10/27 16:13:02;;;;;;;7.80;5.05;;;15.10;99.90;;;;;;5074066;28;20017;-71
2021/10/27 16:15:37;;;;;;;13.75;6.00;;;15.00;99.90;;;;;;5074052;28;20012;-71
2021/10/27 16:18:04;;;;;;;7.47;5.32;;;14.90;99.90;;;;;;5072963;28;20101;-71
2021/10/27 16:20:30;;;;;;;9.38;5.80;;;14.80;99.90;;;;;;5056162;28;20029;-71
2021/10/27 16:22:55;;;;;;;12.25;5.40;;;14.70;99.90;;;;;;5074148;28;20363;-71
2021/10/27 16:25:21;;;;;;;12.93;6.32;;;14.70;99.90;;;;;;5074492;28;20032;-71
2021/10/27 16:27:47;;;;;;;13.48;6.35;;;14.60;99.90;;;;;;5074445;28;20028;-71
2021/10/27 16:30:13;;;;;;;13.20;5.68;;;14.60;99.90;;;;;;5074323;28;20035;-71
2021/10/27 16:32:40;;;;;;;12.95;6.05;;;14.50;99.90;;;;;;5073393;28;20086;-71
2021/10/27 16:35:06;;;;;;;9.85;5.68;;;14.40;99.90;;;;;;5074039;28;20382;-71
2021/10/27 16:37:33;;;;;;;10.60;5.90;;;14.30;99.90;;;;;;5074018;28;20021;-71
2021/10/27 16:39:59;;;;;;;9.75;5.88;;;14.20;99.90;;;;;;5073115;28;20024;-71